sensor_id;sensor_type;location;lat;lon;timestamp;P1;durP1;ratioP1;P2;durP2;ratioP2
30010;SDS011;16851;53.564;8.112;2023-04-06T00:03:58;26.57;;;15.33;;
30010;SDS011;16851;53.564;8.112;2023-04-06T00:09:03;20.07;;;14.10;;
30010;SDS011;16851;53.564;8.112;2023-04-06T00:14:07;21.20;;;14.80;;
30010;SDS011;16851;53.564;8.112;2023-04-06T00:19:09;20.47;;;13.50;;
30010;SDS011;16851;53.564;8.112;2023-04-06T00:24:18;20.70;;;14.57;;
30010;SDS011;16851;53.564;8.112;2023-04-06T00:29:20;31.30;;;17.67;;
30010;SDS011;16851;53.564;8.112;2023-04-06T00:34:22;23.63;;;16.37;;
30010;SDS011;16851;53.564;8.112;2023-04-06T00:39:24;22.23;;;15.40;;
30010;SDS011;16851;53.564;8.112;2023-04-06T00:44:28;28.70;;;18.47;;
30010;SDS011;16851;53.564;8.112;2023-04-06T00:49:29;21.53;;;15.03;;
30010;SDS011;16851;53.564;8.112;2023-04-06T00:54:31;22.80;;;15.27;;
30010;SDS011;16851;53.564;8.112;2023-04-06T00:59:36;20.23;;;13.53;;
30010;SDS011;16851;53.564;8.112;2023-04-06T01:04:41;23.43;;;15.97;;
30010;SDS011;16851;53.564;8.112;2023-04-06T01:09:54;26.33;;;17.20;;
30010;SDS011;16851;53.564;8.112;2023-04-06T01:15:02;25.17;;;17.50;;
30010;SDS011;16851;53.564;8.112;2023-04-06T01:20:06;26.67;;;17.60;;
30010;SDS011;16851;53.564;8.112;2023-04-06T01:25:09;26.60;;;19.53;;
30010;SDS011;16851;53.564;8.112;2023-04-06T01:30:21;22.63;;;16.30;;
30010;SDS011;16851;53.564;8.112;2023-04-06T01:35:32;25.43;;;17.97;;
30010;SDS011;16851;53.564;8.112;2023-04-06T01:40:46;29.13;;;21.87;;
30010;SDS011;16851;53.564;8.112;2023-04-06T01:45:53;26.83;;;19.30;;
30010;SDS011;16851;53.564;8.112;2023-04-06T01:51:03;29.80;;;22.07;;
30010;SDS011;16851;53.564;8.112;2023-04-06T01:56:16;25.87;;;19.00;;
30010;SDS011;16851;53.564;8.112;2023-04-06T02:01:27;32.20;;;23.13;;
30010;SDS011;16851;53.564;8.112;2023-04-06T02:06:31;35.13;;;26.40;;
30010;SDS011;16851;53.564;8.112;2023-04-06T02:11:35;37.50;;;24.33;;
30010;SDS011;16851;53.564;8.112;2023-04-06T02:16:40;35.17;;;25.13;;
30010;SDS011;16851;53.564;8.112;2023-04-06T02:21:45;47.10;;;31.80;;
30010;SDS011;16851;53.564;8.112;2023-04-06T02:26:49;47.93;;;31.93;;
30010;SDS011;16851;53.564;8.112;2023-04-06T02:31:53;50.73;;;34.00;;
30010;SDS011;16851;53.564;8.112;2023-04-06T02:36:56;43.63;;;31.63;;
30010;SDS011;16851;53.564;8.112;2023-04-06T02:41:57;52.50;;;35.80;;
30010;SDS011;16851;53.564;8.112;2023-04-06T02:47:00;40.83;;;31.00;;
30010;SDS011;16851;53.564;8.112;2023-04-06T02:52:04;45.40;;;30.50;;
30010;SDS011;16851;53.564;8.112;2023-04-06T02:57:09;42.43;;;31.00;;
30010;SDS011;16851;53.564;8.112;2023-04-06T03:02:15;54.37;;;36.57;;
30010;SDS011;16851;53.564;8.112;2023-04-06T03:07:23;65.13;;;41.20;;
30010;SDS011;16851;53.564;8.112;2023-04-06T03:12:27;62.43;;;41.20;;
30010;SDS011;16851;53.564;8.112;2023-04-06T03:17:46;62.47;;;40.63;;
30010;SDS011;16851;53.564;8.112;2023-04-06T03:23:04;47.47;;;33.10;;
30010;SDS011;16851;53.564;8.112;2023-04-06T03:28:11;41.17;;;30.93;;
30010;SDS011;16851;53.564;8.112;2023-04-06T03:33:27;41.63;;;29.67;;
30010;SDS011;16851;53.564;8.112;2023-04-06T03:38:30;61.60;;;38.83;;
30010;SDS011;16851;53.564;8.112;2023-04-06T03:43:32;38.40;;;28.73;;
30010;SDS011;16851;53.564;8.112;2023-04-06T03:48:34;60.83;;;39.47;;
30010;SDS011;16851;53.564;8.112;2023-04-06T03:53:39;43.70;;;27.70;;
30010;SDS011;16851;53.564;8.112;2023-04-06T03:58:43;51.30;;;34.00;;
30010;SDS011;16851;53.564;8.112;2023-04-06T04:03:54;48.50;;;32.83;;
30010;SDS011;16851;53.564;8.112;2023-04-06T04:09:05;38.97;;;28.67;;
30010;SDS011;16851;53.564;8.112;2023-04-06T04:14:07;40.90;;;28.60;;
30010;SDS011;16851;53.564;8.112;2023-04-06T04:19:11;44.43;;;32.97;;
30010;SDS011;16851;53.564;8.112;2023-04-06T04:24:13;44.47;;;31.07;;
30010;SDS011;16851;53.564;8.112;2023-04-06T04:29:18;44.23;;;32.30;;
30010;SDS011;16851;53.564;8.112;2023-04-06T04:34:26;47.10;;;32.50;;
30010;SDS011;16851;53.564;8.112;2023-04-06T04:39:31;65.27;;;42.27;;
30010;SDS011;16851;53.564;8.112;2023-04-06T04:44:40;78.63;;;46.83;;
30010;SDS011;16851;53.564;8.112;2023-04-06T04:49:45;47.70;;;34.40;;
30010;SDS011;16851;53.564;8.112;2023-04-06T04:54:56;43.57;;;31.20;;
30010;SDS011;16851;53.564;8.112;2023-04-06T05:00:01;41.43;;;28.77;;
30010;SDS011;16851;53.564;8.112;2023-04-06T05:05:07;44.63;;;31.43;;
30010;SDS011;16851;53.564;8.112;2023-04-06T05:10:10;48.23;;;31.73;;
30010;SDS011;16851;53.564;8.112;2023-04-06T05:15:22;44.60;;;31.00;;
30010;SDS011;16851;53.564;8.112;2023-04-06T05:20:29;38.27;;;27.80;;
30010;SDS011;16851;53.564;8.112;2023-04-06T05:25:32;42.63;;;28.60;;
30010;SDS011;16851;53.564;8.112;2023-04-06T05:30:47;38.87;;;29.27;;
30010;SDS011;16851;53.564;8.112;2023-04-06T05:35:50;39.83;;;29.27;;
30010;SDS011;16851;53.564;8.112;2023-04-06T05:40:52;36.40;;;26.60;;
30010;SDS011;16851;53.564;8.112;2023-04-06T05:45:58;37.67;;;26.47;;
30010;SDS011;16851;53.564;8.112;2023-04-06T05:51:00;36.57;;;26.40;;
30010;SDS011;16851;53.564;8.112;2023-04-06T05:56:16;36.20;;;26.43;;
30010;SDS011;16851;53.564;8.112;2023-04-06T06:01:19;36.17;;;26.50;;
30010;SDS011;16851;53.564;8.112;2023-04-06T06:06:22;33.70;;;24.10;;
30010;SDS011;16851;53.564;8.112;2023-04-06T06:11:52;33.80;;;22.13;;
30010;SDS011;16851;53.564;8.112;2023-04-06T06:17:00;25.47;;;20.13;;
30010;SDS011;16851;53.564;8.112;2023-04-06T06:22:05;26.60;;;20.07;;
30010;SDS011;16851;53.564;8.112;2023-04-06T06:27:11;26.67;;;19.73;;
30010;SDS011;16851;53.564;8.112;2023-04-06T06:32:13;24.33;;;18.63;;
30010;SDS011;16851;53.564;8.112;2023-04-06T06:37:22;26.20;;;16.60;;
30010;SDS011;16851;53.564;8.112;2023-04-06T06:42:28;21.27;;;16.00;;
30010;SDS011;16851;53.564;8.112;2023-04-06T06:47:42;22.60;;;15.60;;
30010;SDS011;16851;53.564;8.112;2023-04-06T06:52:45;20.10;;;15.50;;
30010;SDS011;16851;53.564;8.112;2023-04-06T06:57:49;22.20;;;14.87;;
30010;SDS011;16851;53.564;8.112;2023-04-06T07:02:51;16.60;;;13.33;;
30010;SDS011;16851;53.564;8.112;2023-04-06T07:07:57;18.03;;;14.17;;
30010;SDS011;16851;53.564;8.112;2023-04-06T07:13:01;18.07;;;12.10;;
30010;SDS011;16851;53.564;8.112;2023-04-06T07:18:03;18.90;;;11.90;;
30010;SDS011;16851;53.564;8.112;2023-04-06T07:23:06;16.37;;;11.80;;
30010;SDS011;16851;53.564;8.112;2023-04-06T07:28:15;13.57;;;9.73;;
30010;SDS011;16851;53.564;8.112;2023-04-06T07:33:18;16.10;;;10.57;;
30010;SDS011;16851;53.564;8.112;2023-04-06T07:38:20;14.17;;;9.87;;
30010;SDS011;16851;53.564;8.112;2023-04-06T07:43:28;15.37;;;10.33;;
30010;SDS011;16851;53.564;8.112;2023-04-06T07:48:30;14.97;;;9.83;;
30010;SDS011;16851;53.564;8.112;2023-04-06T07:53:36;16.00;;;10.73;;
30010;SDS011;16851;53.564;8.112;2023-04-06T07:58:41;17.53;;;10.00;;
30010;SDS011;16851;53.564;8.112;2023-04-06T08:03:50;16.47;;;9.63;;
30010;SDS011;16851;53.564;8.112;2023-04-06T08:08:53;14.13;;;9.37;;
30010;SDS011;16851;53.564;8.112;2023-04-06T08:13:56;16.60;;;10.17;;
30010;SDS011;16851;53.564;8.112;2023-04-06T08:18:58;13.40;;;9.17;;
30010;SDS011;16851;53.564;8.112;2023-04-06T08:24:02;16.07;;;10.83;;
30010;SDS011;16851;53.564;8.112;2023-04-06T08:29:04;13.73;;;9.23;;
30010;SDS011;16851;53.564;8.112;2023-04-06T08:34:11;13.93;;;8.70;;
30010;SDS011;16851;53.564;8.112;2023-04-06T08:39:15;12.70;;;8.20;;
30010;SDS011;16851;53.564;8.112;2023-04-06T08:44:27;13.17;;;8.17;;
30010;SDS011;16851;53.564;8.112;2023-04-06T08:49:34;10.63;;;8.13;;
30010;SDS011;16851;53.564;8.112;2023-04-06T08:54:38;13.17;;;7.70;;
30010;SDS011;16851;53.564;8.112;2023-04-06T08:59:45;12.37;;;7.97;;
30010;SDS011;16851;53.564;8.112;2023-04-06T09:04:52;10.90;;;7.20;;
30010;SDS011;16851;53.564;8.112;2023-04-06T09:09:55;11.20;;;8.30;;
30010;SDS011;16851;53.564;8.112;2023-04-06T09:14:59;12.23;;;7.50;;
30010;SDS011;16851;53.564;8.112;2023-04-06T09:20:01;9.50;;;6.33;;
30010;SDS011;16851;53.564;8.112;2023-04-06T09:25:05;10.57;;;6.83;;
30010;SDS011;16851;53.564;8.112;2023-04-06T09:30:08;9.47;;;7.20;;
30010;SDS011;16851;53.564;8.112;2023-04-06T09:35:17;11.63;;;7.30;;
30010;SDS011;16851;53.564;8.112;2023-04-06T09:40:21;11.23;;;7.13;;
30010;SDS011;16851;53.564;8.112;2023-04-06T09:45:23;9.77;;;6.97;;
30010;SDS011;16851;53.564;8.112;2023-04-06T09:50:26;13.37;;;7.33;;
30010;SDS011;16851;53.564;8.112;2023-04-06T09:55:35;10.77;;;7.40;;
30010;SDS011;16851;53.564;8.112;2023-04-06T10:00:51;11.00;;;7.67;;
30010;SDS011;16851;53.564;8.112;2023-04-06T10:05:55;11.53;;;7.70;;
30010;SDS011;16851;53.564;8.112;2023-04-06T10:11:01;13.23;;;7.70;;
30010;SDS011;16851;53.564;8.112;2023-04-06T10:16:06;13.17;;;7.83;;
30010;SDS011;16851;53.564;8.112;2023-04-06T10:21:15;12.83;;;8.23;;
30010;SDS011;16851;53.564;8.112;2023-04-06T10:26:22;12.67;;;8.07;;
30010;SDS011;16851;53.564;8.112;2023-04-06T10:31:27;17.20;;;9.20;;
30010;SDS011;16851;53.564;8.112;2023-04-06T10:36:33;12.23;;;8.17;;
30010;SDS011;16851;53.564;8.112;2023-04-06T10:41:41;12.53;;;7.93;;
30010;SDS011;16851;53.564;8.112;2023-04-06T10:46:51;12.97;;;8.40;;
30010;SDS011;16851;53.564;8.112;2023-04-06T10:51:57;13.33;;;8.43;;
30010;SDS011;16851;53.564;8.112;2023-04-06T10:57:01;11.77;;;8.50;;
30010;SDS011;16851;53.564;8.112;2023-04-06T11:02:05;13.80;;;8.60;;
30010;SDS011;16851;53.564;8.112;2023-04-06T11:07:12;13.87;;;9.10;;
30010;SDS011;16851;53.564;8.112;2023-04-06T11:12:33;12.87;;;8.57;;
30010;SDS011;16851;53.564;8.112;2023-04-06T11:17:37;21.10;;;9.53;;
30010;SDS011;16851;53.564;8.112;2023-04-06T11:22:49;14.53;;;9.63;;
30010;SDS011;16851;53.564;8.112;2023-04-06T11:27:54;14.63;;;10.03;;
30010;SDS011;16851;53.564;8.112;2023-04-06T11:33:00;13.70;;;9.77;;
30010;SDS011;16851;53.564;8.112;2023-04-06T11:38:04;13.90;;;9.80;;
30010;SDS011;16851;53.564;8.112;2023-04-06T11:43:11;15.20;;;9.80;;
30010;SDS011;16851;53.564;8.112;2023-04-06T11:48:19;18.33;;;10.02;;
30010;SDS011;16851;53.564;8.112;2023-04-06T11:53:22;18.05;;;10.73;;
30010;SDS011;16851;53.564;8.112;2023-04-06T11:58:27;14.90;;;10.40;;
30010;SDS011;16851;53.564;8.112;2023-04-06T12:03:28;12.02;;;9.77;;
30010;SDS011;16851;53.564;8.112;2023-04-06T12:08:33;15.25;;;9.73;;
30010;SDS011;16851;53.564;8.112;2023-04-06T12:13:35;16.00;;;10.10;;
30010;SDS011;16851;53.564;8.112;2023-04-06T12:18:39;13.77;;;9.50;;
30010;SDS011;16851;53.564;8.112;2023-04-06T12:23:41;13.98;;;9.70;;
30010;SDS011;16851;53.564;8.112;2023-04-06T12:28:45;14.90;;;10.13;;
30010;SDS011;16851;53.564;8.112;2023-04-06T12:33:50;13.05;;;9.68;;
30010;SDS011;16851;53.564;8.112;2023-04-06T12:38:51;12.65;;;9.18;;
30010;SDS011;16851;53.564;8.112;2023-04-06T12:43:55;12.35;;;8.93;;
30010;SDS011;16851;53.564;8.112;2023-04-06T12:49:00;12.50;;;9.48;;
30010;SDS011;16851;53.564;8.112;2023-04-06T12:54:02;14.00;;;9.15;;
30010;SDS011;16851;53.564;8.112;2023-04-06T12:59:04;13.63;;;9.23;;
30010;SDS011;16851;53.564;8.112;2023-04-06T13:04:09;12.05;;;8.98;;
30010;SDS011;16851;53.564;8.112;2023-04-06T13:09:10;16.30;;;9.70;;
30010;SDS011;16851;53.564;8.112;2023-04-06T13:14:14;11.15;;;8.50;;
30010;SDS011;16851;53.564;8.112;2023-04-06T13:19:19;11.90;;;8.75;;
30010;SDS011;16851;53.564;8.112;2023-04-06T13:24:24;12.80;;;9.32;;
30010;SDS011;16851;53.564;8.112;2023-04-06T13:29:30;11.95;;;7.85;;
30010;SDS011;16851;53.564;8.112;2023-04-06T13:34:35;10.77;;;8.25;;
30010;SDS011;16851;53.564;8.112;2023-04-06T13:39:39;12.88;;;10.77;;
30010;SDS011;16851;53.564;8.112;2023-04-06T13:44:43;16.70;;;12.38;;
30010;SDS011;16851;53.564;8.112;2023-04-06T13:49:49;18.77;;;11.20;;
30010;SDS011;16851;53.564;8.112;2023-04-06T13:54:52;13.20;;;10.82;;
30010;SDS011;16851;53.564;8.112;2023-04-06T13:59:54;12.82;;;10.27;;
30010;SDS011;16851;53.564;8.112;2023-04-06T14:04:56;11.57;;;10.10;;
30010;SDS011;16851;53.564;8.112;2023-04-06T14:09:58;18.10;;;12.98;;
30010;SDS011;16851;53.564;8.112;2023-04-06T14:15:02;20.60;;;13.27;;
30010;SDS011;16851;53.564;8.112;2023-04-06T14:20:07;14.73;;;11.80;;
30010;SDS011;16851;53.564;8.112;2023-04-06T14:25:10;24.50;;;12.13;;
30010;SDS011;16851;53.564;8.112;2023-04-06T14:30:17;16.27;;;11.98;;
30010;SDS011;16851;53.564;8.112;2023-04-06T14:35:24;15.75;;;12.20;;
30010;SDS011;16851;53.564;8.112;2023-04-06T14:40:29;14.95;;;11.88;;
30010;SDS011;16851;53.564;8.112;2023-04-06T14:45:32;13.57;;;10.48;;
30010;SDS011;16851;53.564;8.112;2023-04-06T14:50:38;17.05;;;11.75;;
30010;SDS011;16851;53.564;8.112;2023-04-06T14:55:47;14.40;;;11.05;;
30010;SDS011;16851;53.564;8.112;2023-04-06T15:00:58;12.63;;;11.00;;
30010;SDS011;16851;53.564;8.112;2023-04-06T15:06:02;20.77;;;11.63;;
30010;SDS011;16851;53.564;8.112;2023-04-06T15:11:04;15.48;;;10.65;;
30010;SDS011;16851;53.564;8.112;2023-04-06T15:16:06;14.77;;;11.15;;
30010;SDS011;16851;53.564;8.112;2023-04-06T15:21:11;17.40;;;11.02;;
30010;SDS011;16851;53.564;8.112;2023-04-06T15:26:15;14.30;;;11.48;;
30010;SDS011;16851;53.564;8.112;2023-04-06T15:31:20;17.60;;;11.63;;
30010;SDS011;16851;53.564;8.112;2023-04-06T15:36:38;16.70;;;11.77;;
30010;SDS011;16851;53.564;8.112;2023-04-06T15:41:42;12.57;;;10.77;;
30010;SDS011;16851;53.564;8.112;2023-04-06T15:46:44;14.07;;;10.90;;
30010;SDS011;16851;53.564;8.112;2023-04-06T15:51:46;15.82;;;10.70;;
30010;SDS011;16851;53.564;8.112;2023-04-06T15:56:54;14.07;;;10.57;;
30010;SDS011;16851;53.564;8.112;2023-04-06T16:01:58;16.88;;;12.80;;
30010;SDS011;16851;53.564;8.112;2023-04-06T16:07:03;17.40;;;12.13;;
30010;SDS011;16851;53.564;8.112;2023-04-06T16:12:05;19.50;;;11.70;;
30010;SDS011;16851;53.564;8.112;2023-04-06T16:17:07;14.88;;;11.15;;
30010;SDS011;16851;53.564;8.112;2023-04-06T16:22:08;15.48;;;10.73;;
30010;SDS011;16851;53.564;8.112;2023-04-06T16:27:11;18.77;;;11.50;;
30010;SDS011;16851;53.564;8.112;2023-04-06T16:32:15;16.30;;;11.50;;
30010;SDS011;16851;53.564;8.112;2023-04-06T16:37:19;15.00;;;10.65;;
30010;SDS011;16851;53.564;8.112;2023-04-06T16:42:21;14.13;;;11.02;;
30010;SDS011;16851;53.564;8.112;2023-04-06T16:47:22;17.67;;;11.77;;
30010;SDS011;16851;53.564;8.112;2023-04-06T16:52:24;15.05;;;11.27;;
30010;SDS011;16851;53.564;8.112;2023-04-06T16:57:30;13.55;;;10.68;;
30010;SDS011;16851;53.564;8.112;2023-04-06T17:02:34;14.38;;;10.27;;
30010;SDS011;16851;53.564;8.112;2023-04-06T17:07:38;15.98;;;10.85;;
30010;SDS011;16851;53.564;8.112;2023-04-06T17:12:43;14.07;;;10.85;;
30010;SDS011;16851;53.564;8.112;2023-04-06T17:17:46;14.02;;;10.55;;
30010;SDS011;16851;53.564;8.112;2023-04-06T17:22:50;14.68;;;11.45;;
30010;SDS011;16851;53.564;8.112;2023-04-06T17:27:54;17.02;;;11.20;;
30010;SDS011;16851;53.564;8.112;2023-04-06T17:32:56;16.60;;;10.95;;
30010;SDS011;16851;53.564;8.112;2023-04-06T17:38:01;13.95;;;10.63;;
30010;SDS011;16851;53.564;8.112;2023-04-06T17:43:03;14.30;;;11.00;;
30010;SDS011;16851;53.564;8.112;2023-04-06T17:48:06;16.27;;;11.52;;
30010;SDS011;16851;53.564;8.112;2023-04-06T17:53:08;18.35;;;10.65;;
30010;SDS011;16851;53.564;8.112;2023-04-06T17:58:09;13.25;;;11.25;;
30010;SDS011;16851;53.564;8.112;2023-04-06T18:03:13;14.52;;;11.38;;
30010;SDS011;16851;53.564;8.112;2023-04-06T18:08:18;16.00;;;11.38;;
30010;SDS011;16851;53.564;8.112;2023-04-06T18:13:22;15.32;;;11.20;;
30010;SDS011;16851;53.564;8.112;2023-04-06T18:18:27;17.35;;;12.52;;
30010;SDS011;16851;53.564;8.112;2023-04-06T18:23:32;18.20;;;13.55;;
30010;SDS011;16851;53.564;8.112;2023-04-06T18:28:34;20.08;;;14.50;;
30010;SDS011;16851;53.564;8.112;2023-04-06T18:33:37;17.00;;;11.70;;
30010;SDS011;16851;53.564;8.112;2023-04-06T18:38:41;18.30;;;12.43;;
30010;SDS011;16851;53.564;8.112;2023-04-06T18:43:50;19.08;;;13.45;;
30010;SDS011;16851;53.564;8.112;2023-04-06T18:48:55;16.42;;;12.60;;
30010;SDS011;16851;53.564;8.112;2023-04-06T18:54:02;17.52;;;12.38;;
30010;SDS011;16851;53.564;8.112;2023-04-06T18:59:08;19.87;;;13.30;;
30010;SDS011;16851;53.564;8.112;2023-04-06T19:04:11;18.95;;;13.10;;
30010;SDS011;16851;53.564;8.112;2023-04-06T19:09:13;18.03;;;12.97;;
30010;SDS011;16851;53.564;8.112;2023-04-06T19:14:17;21.35;;;12.82;;
30010;SDS011;16851;53.564;8.112;2023-04-06T19:19:19;18.97;;;13.07;;
30010;SDS011;16851;53.564;8.112;2023-04-06T19:24:23;18.03;;;12.57;;
30010;SDS011;16851;53.564;8.112;2023-04-06T19:29:25;20.40;;;13.33;;
30010;SDS011;16851;53.564;8.112;2023-04-06T19:34:26;20.87;;;13.40;;
30010;SDS011;16851;53.564;8.112;2023-04-06T19:39:31;19.17;;;13.07;;
30010;SDS011;16851;53.564;8.112;2023-04-06T19:44:39;17.77;;;13.00;;
30010;SDS011;16851;53.564;8.112;2023-04-06T19:49:45;18.87;;;13.53;;
30010;SDS011;16851;53.564;8.112;2023-04-06T19:54:47;17.03;;;12.73;;
30010;SDS011;16851;53.564;8.112;2023-04-06T19:59:49;17.90;;;12.47;;
30010;SDS011;16851;53.564;8.112;2023-04-06T20:04:53;18.83;;;11.93;;
30010;SDS011;16851;53.564;8.112;2023-04-06T20:09:55;16.43;;;11.90;;
30010;SDS011;16851;53.564;8.112;2023-04-06T20:14:59;18.47;;;12.67;;
30010;SDS011;16851;53.564;8.112;2023-04-06T20:20:01;20.37;;;12.67;;
30010;SDS011;16851;53.564;8.112;2023-04-06T20:25:02;17.50;;;12.97;;
30010;SDS011;16851;53.564;8.112;2023-04-06T20:30:07;19.90;;;13.37;;
30010;SDS011;16851;53.564;8.112;2023-04-06T20:35:10;19.67;;;12.33;;
30010;SDS011;16851;53.564;8.112;2023-04-06T20:40:14;18.98;;;13.18;;
30010;SDS011;16851;53.564;8.112;2023-04-06T20:45:16;17.13;;;11.97;;
30010;SDS011;16851;53.564;8.112;2023-04-06T20:50:20;16.97;;;12.20;;
30010;SDS011;16851;53.564;8.112;2023-04-06T20:55:25;22.50;;;14.03;;
30010;SDS011;16851;53.564;8.112;2023-04-06T21:00:30;21.23;;;13.47;;
30010;SDS011;16851;53.564;8.112;2023-04-06T21:05:37;17.70;;;12.73;;
30010;SDS011;16851;53.564;8.112;2023-04-06T21:10:39;22.80;;;15.27;;
30010;SDS011;16851;53.564;8.112;2023-04-06T21:15:41;25.77;;;14.73;;
30010;SDS011;16851;53.564;8.112;2023-04-06T21:20:47;19.63;;;14.33;;
30010;SDS011;16851;53.564;8.112;2023-04-06T21:25:52;21.67;;;14.10;;
30010;SDS011;16851;53.564;8.112;2023-04-06T21:30:59;23.70;;;15.03;;
30010;SDS011;16851;53.564;8.112;2023-04-06T21:36:09;21.63;;;15.47;;
30010;SDS011;16851;53.564;8.112;2023-04-06T21:41:11;24.50;;;15.07;;
30010;SDS011;16851;53.564;8.112;2023-04-06T21:46:13;20.97;;;15.87;;
30010;SDS011;16851;53.564;8.112;2023-04-06T21:51:16;20.33;;;14.80;;
30010;SDS011;16851;53.564;8.112;2023-04-06T21:56:21;18.83;;;13.97;;
30010;SDS011;16851;53.564;8.112;2023-04-06T22:01:24;19.93;;;14.97;;
30010;SDS011;16851;53.564;8.112;2023-04-06T22:06:28;20.07;;;14.33;;
30010;SDS011;16851;53.564;8.112;2023-04-06T22:11:32;22.53;;;15.37;;
30010;SDS011;16851;53.564;8.112;2023-04-06T22:16:34;22.23;;;14.23;;
30010;SDS011;16851;53.564;8.112;2023-04-06T22:21:38;20.47;;;15.00;;
30010;SDS011;16851;53.564;8.112;2023-04-06T22:26:42;21.97;;;15.53;;
30010;SDS011;16851;53.564;8.112;2023-04-06T22:31:44;21.23;;;14.77;;
30010;SDS011;16851;53.564;8.112;2023-04-06T22:36:47;23.37;;;14.57;;
30010;SDS011;16851;53.564;8.112;2023-04-06T22:41:51;24.37;;;15.10;;
30010;SDS011;16851;53.564;8.112;2023-04-06T22:46:53;22.73;;;14.73;;
30010;SDS011;16851;53.564;8.112;2023-04-06T22:51:57;19.67;;;14.17;;
30010;SDS011;16851;53.564;8.112;2023-04-06T22:56:59;19.03;;;13.73;;
30010;SDS011;16851;53.564;8.112;2023-04-06T23:02:08;21.17;;;14.33;;
30010;SDS011;16851;53.564;8.112;2023-04-06T23:07:12;21.97;;;15.13;;
30010;SDS011;16851;53.564;8.112;2023-04-06T23:12:15;19.03;;;14.43;;
30010;SDS011;16851;53.564;8.112;2023-04-06T23:17:22;21.03;;;15.90;;
30010;SDS011;16851;53.564;8.112;2023-04-06T23:22:27;22.20;;;14.50;;
30010;SDS011;16851;53.564;8.112;2023-04-06T23:27:29;20.37;;;14.20;;
30010;SDS011;16851;53.564;8.112;2023-04-06T23:32:33;20.57;;;13.93;;
30010;SDS011;16851;53.564;8.112;2023-04-06T23:37:42;17.47;;;13.43;;
30010;SDS011;16851;53.564;8.112;2023-04-06T23:42:44;18.13;;;13.80;;
30010;SDS011;16851;53.564;8.112;2023-04-06T23:47:45;20.37;;;13.97;;
30010;SDS011;16851;53.564;8.112;2023-04-06T23:52:47;20.17;;;14.17;;
30010;SDS011;16851;53.564;8.112;2023-04-06T23:57:51;19.37;;;14.20;;
